Robert C. Seamans — WDA4486 — position and weather

sailwx.info

Track history (hours):
 
Tides and Currents Weather Stations Pressure Air Temp Water Temp Dewpoint Dewpoint Depression Visibility Wind Speed Wind Dir Waves Ship Positions

Oceanographic research ship Robert C. Seamans (USA)

Ship's website: http://www.sea.edu/sea2000/Supporting2000/RobertSeamansIntro.htm

Detailed information on ship capabilities available from University of Delaware's Ocean Information Center.

Owner: Sea Education Association Corporation, Woods Hole, MA. More information available from US FCC via Universal Licensing System and Coast Guard Vessel Documentation Center.

Last reported at 2015-Jan-20 23:03 UTC. Time now 2015-Jan-29 06:27 UTC.
Position S 36°24' E 174°54'.
Warning: this ship's position is 8 days out of date.

Type: Sailing vessel. MMSI: 369503000.

Date/timePositionNaut miles runAvg speedWind from/ knotsBaromVisibWave heightAir tempDewpointWater temp
2015-Jan-20 23:03S 36°24' E 174°54'8 8.5
2015-Jan-20 22:09S 36°32' E 174°53'20 0.4
2015-Jan-19 01:19S 36°50' E 174°46'0 0.0
2015-Jan-19 00:31S 36°50' E 174°46'0 0.0
2015-Jan-18 23:25S 36°50' E 174°46'4 0.7
2015-Jan-18 18:30S 36°48' E 174°49'7 7.6
2015-Jan-18 17:33S 36°41' E 174°48'2 1.9
2015-Jan-18 16:25S 36°39' E 174°48'0 0.0
2015-Jan-18 11:33S 36°39' E 174°48'0 0.0
2015-Jan-18 10:04S 36°39' E 174°48'0 0.0
2015-Jan-18 09:33S 36°39' E 174°48'0 0.0
2015-Jan-18 08:32S 36°39' E 174°48'0 0.0
2015-Jan-18 07:33S 36°38' E 174°48'3 2.7
2015-Jan-18 06:33S 36°38' E 174°51'7 7.3
2015-Jan-18 05:33S 36°31' E 174°54'8 7.5
2015-Jan-18 04:30S 36°24' E 174°56'7 7.9
2015-Jan-18 03:34S 36°17' E 175°00'  
2015-Jan-15 22:09S 36°23' E 174°50'3 5.5
2015-Jan-15 21:33S 36°22' E 174°53'18 0.4
2015-Jan-14 01:32S 36°40' E 174°58'7 7.0
2015-Jan-14 00:34S 36°44' E 174°51'  
Track history (hours):
 
Tides and Currents Weather Stations Pressure Air Temp Water Temp Dewpoint Dewpoint Depression Visibility Wind Speed Wind Dir Waves Ship Positions

Oceanographic research ship Robert C. Seamans (USA)

Ship's website: http://www.sea.edu/sea2000/Supporting2000/RobertSeamansIntro.htm

Detailed information on ship capabilities available from University of Delaware's Ocean Information Center.

Owner: Sea Education Association Corporation, Woods Hole, MA. More information available from US FCC via Universal Licensing System and Coast Guard Vessel Documentation Center.

Last reported at 2015-Jan-20 23:03 UTC. Time now 2015-Jan-29 06:27 UTC.
Position S 36°24' E 174°54'.
Warning: this ship's position is 8 days out of date.

Type: Sailing vessel. MMSI: 369503000.

Date/timePositionNaut miles runAvg speedWind from/ knotsBaromVisibWave heightAir tempDewpointWater temp
2015-Jan-20 23:03S 36°24' E 174°54'8 8.5
2015-Jan-20 22:09S 36°32' E 174°53'20 0.4
2015-Jan-19 01:19S 36°50' E 174°46'0 0.0
2015-Jan-19 00:31S 36°50' E 174°46'0 0.0
2015-Jan-18 23:25S 36°50' E 174°46'4 0.7
2015-Jan-18 18:30S 36°48' E 174°49'7 7.6
2015-Jan-18 17:33S 36°41' E 174°48'2 1.9
2015-Jan-18 16:25S 36°39' E 174°48'0 0.0
2015-Jan-18 11:33S 36°39' E 174°48'0 0.0
2015-Jan-18 10:04S 36°39' E 174°48'0 0.0
2015-Jan-18 09:33S 36°39' E 174°48'0 0.0
2015-Jan-18 08:32S 36°39' E 174°48'0 0.0
2015-Jan-18 07:33S 36°38' E 174°48'3 2.7
2015-Jan-18 06:33S 36°38' E 174°51'7 7.3
2015-Jan-18 05:33S 36°31' E 174°54'8 7.5
2015-Jan-18 04:30S 36°24' E 174°56'7 7.9
2015-Jan-18 03:34S 36°17' E 175°00'  
2015-Jan-15 22:09S 36°23' E 174°50'3 5.5
2015-Jan-15 21:33S 36°22' E 174°53'18 0.4
2015-Jan-14 01:32S 36°40' E 174°58'7 7.0
2015-Jan-14 00:34S 36°44' E 174°51'  

Dump ship's entire track history